createdAt,value
2023-04-29T00:01:35.277Z,13.36
2023-04-29T00:04:01.894Z,13.02
2023-04-29T00:06:28.567Z,13.15
2023-04-29T00:08:55.022Z,13.23
2023-04-29T00:11:21.406Z,13.08
2023-04-29T00:13:47.820Z,13.19
2023-04-29T00:16:14.180Z,12.85
2023-04-29T00:18:40.613Z,12.74
2023-04-29T00:21:07.030Z,12.90
2023-04-29T00:23:33.904Z,12.96
2023-04-29T00:26:00.272Z,13.18
2023-04-29T00:28:26.739Z,13.14
2023-04-29T00:30:53.391Z,12.96
2023-04-29T00:33:20.022Z,13.03
2023-04-29T00:35:47.028Z,13.09
2023-04-29T00:38:13.390Z,12.98
2023-04-29T00:40:40.090Z,13.11
2023-04-29T00:43:06.463Z,13.27
2023-04-29T00:45:33.028Z,13.15
2023-04-29T00:47:59.471Z,13.28
2023-04-29T00:50:25.886Z,13.41
2023-04-29T00:52:52.792Z,13.11
2023-04-29T00:55:19.367Z,13.12
2023-04-29T00:57:48.379Z,13.13
2023-04-29T01:00:16.198Z,13.26
2023-04-29T01:02:43.866Z,13.01
2023-04-29T01:05:10.517Z,13.03
2023-04-29T01:07:52.718Z,13.04
2023-04-29T01:10:54.477Z,12.68
2023-04-29T01:13:44.472Z,12.81
2023-04-29T01:16:37.350Z,12.76
2023-04-29T01:19:16.877Z,12.93
2023-04-29T01:21:50.782Z,12.82
2023-04-29T01:24:17.527Z,12.96
2023-04-29T01:26:57.605Z,13.03
2023-04-29T01:29:43.957Z,13.10
2023-04-29T01:32:17.828Z,13.06
2023-04-29T01:35:08.692Z,13.10
2023-04-29T01:37:56.354Z,13.03
2023-04-29T01:40:26.913Z,12.87
2023-04-29T01:42:57.739Z,12.50
2023-04-29T01:45:26.677Z,12.55
2023-04-29T01:47:56.301Z,12.73
2023-04-29T01:50:22.774Z,12.43
2023-04-29T01:52:49.291Z,12.72
2023-04-29T01:55:15.698Z,12.57
2023-04-29T01:57:42.093Z,12.55
2023-04-29T02:00:09.059Z,12.52
2023-04-29T02:02:35.510Z,12.49
2023-04-29T02:05:02.290Z,12.58
2023-04-29T02:07:28.690Z,12.79
2023-04-29T02:09:55.267Z,12.65
2023-04-29T02:12:21.627Z,12.65
2023-04-29T02:14:47.993Z,12.54
2023-04-29T02:17:14.543Z,12.71
2023-04-29T02:19:40.904Z,12.81
2023-04-29T02:22:07.341Z,12.50
2023-04-29T02:24:33.751Z,12.63
2023-04-29T02:27:00.153Z,12.81
2023-04-29T02:29:27.176Z,12.85
2023-04-29T02:31:53.622Z,12.90
2023-04-29T02:34:20.047Z,13.05
2023-04-29T02:36:46.427Z,12.84
2023-04-29T02:39:12.884Z,12.79
2023-04-29T02:41:39.259Z,12.69
2023-04-29T02:44:06.017Z,12.56
2023-04-29T02:46:33.569Z,12.59
2023-04-29T02:49:00.731Z,12.36
2023-04-29T02:51:27.888Z,12.49
2023-04-29T02:53:54.299Z,12.63
2023-04-29T02:56:21.458Z,12.46
2023-04-29T02:58:47.828Z,12.77
2023-04-29T03:01:14.304Z,12.61
2023-04-29T03:03:40.847Z,12.63
2023-04-29T03:06:07.309Z,12.53
2023-04-29T03:08:34.004Z,12.71
2023-04-29T03:11:00.384Z,12.49
2023-04-29T03:13:26.818Z,12.72
2023-04-29T03:15:53.185Z,12.70
2023-04-29T03:18:19.560Z,12.52
2023-04-29T03:20:45.930Z,12.71
2023-04-29T03:23:12.401Z,12.57
2023-04-29T03:25:38.786Z,12.74
2023-04-29T03:28:05.181Z,12.77
2023-04-29T03:30:31.544Z,12.71
2023-04-29T03:32:57.949Z,12.52
2023-04-29T03:35:24.696Z,12.53
2023-04-29T03:37:51.101Z,12.56
2023-04-29T03:40:17.491Z,12.43
2023-04-29T03:42:43.923Z,12.74
2023-04-29T03:45:13.061Z,12.68
2023-04-29T03:47:39.510Z,12.74
2023-04-29T03:50:07.074Z,12.74
2023-04-29T03:52:36.424Z,12.77
2023-04-29T03:55:03.224Z,12.65
2023-04-29T03:57:29.622Z,12.67
2023-04-29T03:59:55.987Z,12.75
2023-04-29T04:02:22.452Z,12.71
2023-04-29T04:04:49.176Z,12.69
2023-04-29T04:07:15.672Z,12.63
2023-04-29T04:09:42.074Z,12.54
2023-04-29T04:12:08.459Z,12.59
2023-04-29T04:14:34.829Z,12.96
2023-04-29T04:17:01.478Z,12.74
2023-04-29T04:19:29.150Z,12.89
2023-04-29T04:21:55.814Z,12.99
2023-04-29T04:24:22.997Z,12.81
2023-04-29T04:26:49.430Z,13.20
2023-04-29T04:29:15.958Z,13.30
2023-04-29T04:31:43.406Z,13.33
2023-04-29T04:34:11.269Z,13.11
2023-04-29T04:36:37.805Z,12.79
2023-04-29T04:39:04.229Z,13.04
2023-04-29T04:41:33.640Z,13.02
2023-04-29T04:44:00.023Z,13.10
2023-04-29T04:46:26.395Z,13.38
2023-04-29T04:48:52.759Z,13.21
2023-04-29T04:51:19.140Z,13.07
2023-04-29T04:53:45.679Z,13.47
2023-04-29T04:56:12.059Z,13.08
2023-04-29T04:58:38.437Z,12.73
2023-04-29T05:01:04.930Z,12.99
2023-04-29T05:03:31.462Z,13.43
2023-04-29T05:05:59.420Z,13.05
2023-04-29T05:08:26.470Z,13.21
2023-04-29T05:10:54.313Z,12.78
2023-04-29T05:13:21.027Z,12.97
2023-04-29T05:15:47.643Z,13.33
2023-04-29T05:18:14.021Z,12.72
2023-04-29T05:20:40.531Z,12.84
2023-04-29T05:23:07.077Z,13.00
2023-04-29T05:25:33.477Z,12.81
2023-04-29T05:27:59.856Z,12.92
2023-04-29T05:30:27.023Z,12.91
2023-04-29T05:32:53.525Z,13.08
2023-04-29T05:35:20.006Z,12.94
2023-04-29T05:37:46.574Z,12.67
2023-04-29T05:40:13.086Z,12.74
2023-04-29T05:42:39.480Z,12.96
2023-04-29T05:45:06.371Z,12.67
2023-04-29T05:47:33.900Z,13.16
2023-04-29T05:50:00.762Z,12.85
2023-04-29T05:52:27.162Z,12.84
2023-04-29T05:54:53.555Z,13.35
2023-04-29T05:57:19.954Z,13.44
2023-04-29T05:59:46.505Z,13.54
2023-04-29T06:02:12.999Z,13.33
2023-04-29T06:04:41.410Z,13.64
2023-04-29T06:07:09.251Z,12.78
2023-04-29T06:09:36.356Z,12.97
2023-04-29T06:12:03.431Z,13.21
2023-04-29T06:14:29.800Z,13.16
2023-04-29T06:16:56.408Z,13.59
2023-04-29T06:19:22.872Z,13.52
2023-04-29T06:21:49.232Z,13.27
2023-04-29T06:24:15.665Z,12.95
2023-04-29T06:26:42.063Z,12.85
2023-04-29T06:29:08.451Z,13.08
2023-04-29T06:31:35.057Z,12.79
2023-04-29T06:34:01.517Z,12.91
2023-04-29T06:36:28.126Z,12.61
2023-04-29T06:38:54.948Z,12.76
2023-04-29T06:41:21.540Z,12.73
2023-04-29T06:43:48.924Z,12.72
2023-04-29T06:46:15.606Z,12.60
2023-04-29T06:48:42.038Z,13.00
2023-04-29T06:51:08.437Z,12.23
2023-04-29T06:53:34.783Z,12.66
2023-04-29T06:56:01.140Z,12.84
2023-04-29T06:58:27.501Z,13.00
2023-04-29T07:00:53.922Z,12.28
2023-04-29T07:03:20.468Z,12.79
2023-04-29T07:05:46.947Z,12.95
2023-04-29T07:08:13.938Z,12.07
2023-04-29T07:10:41.660Z,12.16
2023-04-29T07:13:08.101Z,12.25
2023-04-29T07:15:35.818Z,12.11
2023-04-29T07:18:05.075Z,12.61
2023-04-29T07:20:31.528Z,12.72
2023-04-29T07:22:58.490Z,12.32
2023-04-29T07:25:26.702Z,12.14
2023-04-29T07:27:53.049Z,12.19
2023-04-29T07:30:19.588Z,11.96
2023-04-29T07:32:46.120Z,11.73
2023-04-29T07:35:12.630Z,11.63
2023-04-29T07:37:39.017Z,12.21
2023-04-29T07:40:06.040Z,12.17
2023-04-29T07:42:32.550Z,11.90
2023-04-29T07:44:58.935Z,11.52
2023-04-29T07:47:25.386Z,12.33
2023-04-29T07:49:52.704Z,11.32
2023-04-29T07:52:19.085Z,11.69
2023-04-29T07:54:45.519Z,11.61
2023-04-29T07:57:11.872Z,11.74
2023-04-29T07:59:39.420Z,11.87
2023-04-29T08:02:06.341Z,12.07
2023-04-29T08:04:33.304Z,11.93
2023-04-29T08:06:59.807Z,11.60
2023-04-29T08:09:26.194Z,11.95
2023-04-29T08:11:52.557Z,12.34
2023-04-29T08:14:18.913Z,11.99
2023-04-29T08:16:45.303Z,12.23
2023-04-29T08:19:11.738Z,11.44
2023-04-29T08:21:38.138Z,11.11
2023-04-29T08:24:05.677Z,11.58
2023-04-29T08:26:32.099Z,11.76
2023-04-29T08:28:58.522Z,12.10
2023-04-29T08:31:25.927Z,11.78
2023-04-29T08:33:52.376Z,11.47
2023-04-29T08:36:18.808Z,11.62
2023-04-29T08:38:45.516Z,11.91
2023-04-29T08:41:12.260Z,11.16
2023-04-29T08:43:40.860Z,12.06
2023-04-29T08:46:07.701Z,11.21
2023-04-29T08:48:36.507Z,11.43
2023-04-29T08:51:04.323Z,11.40
2023-04-29T08:53:30.979Z,11.32
2023-04-29T08:56:00.814Z,11.66
2023-04-29T08:58:29.672Z,11.81
2023-04-29T09:00:57.010Z,11.94
2023-04-29T09:03:29.175Z,11.68
2023-04-29T09:05:57.834Z,11.42
2023-04-29T09:08:24.768Z,11.73
2023-04-29T09:10:53.104Z,11.88
2023-04-29T09:13:32.871Z,12.02
2023-04-29T09:15:59.395Z,11.45
2023-04-29T09:18:45.584Z,11.44
2023-04-29T09:21:22.336Z,11.47
2023-04-29T09:23:51.834Z,11.42
2023-04-29T09:26:18.338Z,11.19
2023-04-29T09:28:45.177Z,11.34
2023-04-29T09:31:12.474Z,11.19
2023-04-29T09:33:55.977Z,11.28
2023-04-29T09:36:38.330Z,11.51
2023-04-29T09:39:10.432Z,11.29
2023-04-29T09:41:38.631Z,11.54
2023-04-29T09:44:05.941Z,11.62
2023-04-29T09:46:33.951Z,11.39
2023-04-29T09:49:06.573Z,10.99
2023-04-29T09:51:33.020Z,11.82
2023-04-29T09:54:20.887Z,11.00
2023-04-29T09:56:51.762Z,11.27
2023-04-29T09:59:22.717Z,11.89
2023-04-29T10:01:50.830Z,11.95
2023-04-29T10:04:19.258Z,11.32
2023-04-29T10:06:48.346Z,11.27
2023-04-29T10:09:16.559Z,11.20
2023-04-29T10:11:44.754Z,11.95
2023-04-29T10:14:14.857Z,11.87
2023-04-29T10:16:46.769Z,11.54
2023-04-29T10:19:18.821Z,11.50
2023-04-29T10:21:47.162Z,11.59
2023-04-29T10:24:17.277Z,11.94
2023-04-29T10:26:44.329Z,11.67
2023-04-29T10:29:12.005Z,11.60
2023-04-29T10:31:39.823Z,11.76
2023-04-29T10:34:06.214Z,11.98
2023-04-29T10:36:33.807Z,11.47
2023-04-29T10:39:03.529Z,12.14
2023-04-29T10:41:50.937Z,12.04
2023-04-29T10:44:17.357Z,11.61
2023-04-29T10:46:43.821Z,11.82
2023-04-29T10:49:11.361Z,11.67
2023-04-29T10:51:45.131Z,11.97
2023-04-29T10:54:16.553Z,11.91
2023-04-29T10:56:50.431Z,12.05
2023-04-29T10:59:21.122Z,12.48
2023-04-29T11:01:53.578Z,12.69
2023-04-29T11:04:21.989Z,12.51
2023-04-29T11:06:53.433Z,12.64
2023-04-29T11:09:24.444Z,12.94
2023-04-29T11:12:03.968Z,12.73
2023-04-29T11:15:03.014Z,13.21
2023-04-29T11:17:36.568Z,13.29
2023-04-29T11:20:03.103Z,13.03
2023-04-29T11:22:33.910Z,13.37
2023-04-29T11:25:02.840Z,13.93
2023-04-29T11:27:37.349Z,13.66
2023-04-29T11:30:06.498Z,13.46
2023-04-29T11:32:39.001Z,13.61
2023-04-29T11:35:16.686Z,14.06
2023-04-29T11:37:45.602Z,13.91
2023-04-29T11:40:13.345Z,13.47
2023-04-29T11:42:48.076Z,13.57
2023-04-29T11:45:17.176Z,13.70
2023-04-29T11:47:48.179Z,14.09
2023-04-29T11:50:20.592Z,14.22
2023-04-29T11:52:48.151Z,13.71
2023-04-29T11:55:14.824Z,14.04
2023-04-29T11:57:41.680Z,14.18
2023-04-29T12:00:13.366Z,14.58
2023-04-29T12:02:44.693Z,14.39
2023-04-29T12:05:13.095Z,13.96
2023-04-29T12:07:40.071Z,13.53
2023-04-29T12:10:10.978Z,13.78
2023-04-29T12:12:40.699Z,13.59
2023-04-29T12:15:08.651Z,13.39
2023-04-29T12:17:35.116Z,13.42
2023-04-29T12:20:02.377Z,13.65
2023-04-29T12:22:32.743Z,13.39
2023-04-29T12:24:59.200Z,13.90
2023-04-29T12:27:26.569Z,14.02
2023-04-29T12:29:53.130Z,14.18
2023-04-29T12:32:22.939Z,14.23
2023-04-29T12:34:51.159Z,14.58
2023-04-29T12:37:17.970Z,13.81
2023-04-29T12:39:44.669Z,14.36
2023-04-29T12:42:17.967Z,14.06
2023-04-29T12:44:48.567Z,14.18
2023-04-29T12:47:16.276Z,14.28
2023-04-29T12:49:47.197Z,14.19
2023-04-29T12:52:14.086Z,14.42
2023-04-29T12:54:42.589Z,14.52
2023-04-29T12:57:10.253Z,14.66
2023-04-29T12:59:37.064Z,15.27
2023-04-29T13:02:03.588Z,15.53
2023-04-29T13:04:30.093Z,14.53
2023-04-29T13:07:00.723Z,14.57
2023-04-29T13:09:27.265Z,15.55
2023-04-29T13:11:53.687Z,14.75
2023-04-29T13:14:20.569Z,15.14
2023-04-29T13:16:47.076Z,14.99
2023-04-29T13:21:44.319Z,15.16
2023-04-29T13:24:10.845Z,15.37
2023-04-29T13:26:39.455Z,14.67
2023-04-29T13:33:04.333Z,14.40
